createdAt,value
2023-01-23T00:00:00.706Z,-0.10
2023-01-23T00:02:27.687Z,-0.10
2023-01-23T00:04:54.418Z,-0.10
2023-01-23T00:07:21.109Z,-0.10
2023-01-23T00:09:50.624Z,-0.10
2023-01-23T00:12:17.336Z,-0.10
2023-01-23T00:14:45.502Z,-0.10
2023-01-23T00:17:12.258Z,-0.10
2023-01-23T00:19:38.961Z,-0.10
2023-01-23T00:22:05.655Z,-0.10
2023-01-23T00:24:32.473Z,-0.10
2023-01-23T00:26:59.207Z,-0.10
2023-01-23T00:29:25.886Z,-0.10
2023-01-23T00:31:54.006Z,-0.10
2023-01-23T00:34:20.723Z,-0.10
2023-01-23T00:36:47.478Z,-0.10
2023-01-23T00:39:19.414Z,-0.10
2023-01-23T00:41:47.392Z,-0.10
2023-01-23T00:44:14.485Z,-0.10
2023-01-23T00:46:41.473Z,-0.10
2023-01-23T00:49:09.603Z,-0.10
2023-01-23T00:51:36.336Z,-0.10
2023-01-23T00:54:03.950Z,-0.10
2023-01-23T00:56:31.158Z,-0.10
2023-01-23T00:58:57.913Z,-0.10
2023-01-23T01:01:24.795Z,-0.10
2023-01-23T01:03:51.848Z,-0.10
2023-01-23T01:06:20.014Z,-0.10
2023-01-23T01:08:46.727Z,-0.10
2023-01-23T01:11:13.422Z,-0.10
2023-01-23T01:13:40.624Z,-0.10
2023-01-23T01:16:08.567Z,-0.10
2023-01-23T01:18:35.477Z,0.00
2023-01-23T01:21:06.756Z,0.00
2023-01-23T01:23:35.189Z,-0.10
2023-01-23T01:26:02.739Z,-0.10
2023-01-23T01:28:30.838Z,-0.10
2023-01-23T01:30:58.089Z,-0.10
2023-01-23T01:33:24.877Z,-0.10
2023-01-23T01:35:51.719Z,-0.10
2023-01-23T01:38:18.504Z,-0.10
2023-01-23T01:40:46.547Z,-0.10
2023-01-23T01:43:19.358Z,-0.10
2023-01-23T01:46:06.867Z,-0.10
2023-01-23T01:48:36.711Z,-0.10
2023-01-23T01:51:08.750Z,-0.20
2023-01-23T01:53:36.656Z,-0.20
2023-01-23T01:56:07.388Z,-0.20
2023-01-23T01:58:34.348Z,-0.20
2023-01-23T02:01:01.146Z,-0.20
2023-01-23T02:03:28.039Z,-0.20
2023-01-23T02:05:54.844Z,-0.30
2023-01-23T02:08:26.367Z,-0.20
2023-01-23T02:10:53.239Z,-0.20
2023-01-23T02:13:24.782Z,-0.20
2023-01-23T02:15:52.205Z,-0.30
2023-01-23T02:18:20.280Z,-0.30
2023-01-23T02:20:47.522Z,-0.30
2023-01-23T02:23:21.846Z,-0.30
2023-01-23T02:25:57.636Z,-0.20
2023-01-23T02:28:37.133Z,-0.20
2023-01-23T02:31:04.297Z,-0.30
2023-01-23T02:33:46.960Z,-0.20
2023-01-23T02:36:13.724Z,-0.20
2023-01-23T02:38:47.875Z,-0.20
2023-01-23T02:41:18.016Z,-0.30
2023-01-23T02:43:45.038Z,-0.20
2023-01-23T02:46:12.299Z,-0.30
2023-01-23T02:48:40.711Z,-0.20
2023-01-23T02:51:07.647Z,-0.30
2023-01-23T02:53:34.437Z,-0.30
2023-01-23T02:56:01.172Z,-0.30
2023-01-23T02:58:29.272Z,-0.20
2023-01-23T03:00:56.026Z,-0.30
2023-01-23T03:03:22.812Z,-0.30
2023-01-23T03:05:49.598Z,-0.30
2023-01-23T03:08:16.379Z,-0.40
2023-01-23T03:10:43.277Z,-0.40
2023-01-23T03:13:09.988Z,-0.30
2023-01-23T03:15:38.451Z,-0.40
2023-01-23T03:18:05.783Z,-0.30
2023-01-23T03:20:38.684Z,-0.30
2023-01-23T03:23:05.401Z,-0.30
2023-01-23T03:25:32.093Z,-0.30
2023-01-23T03:27:58.807Z,-0.30
2023-01-23T03:30:25.547Z,-0.30
2023-01-23T03:32:53.636Z,-0.30
2023-01-23T03:35:20.488Z,-0.30
2023-01-23T03:37:47.885Z,-0.30
2023-01-23T03:40:17.495Z,-0.30
2023-01-23T03:42:44.382Z,-0.30
2023-01-23T03:45:11.110Z,-0.30
2023-01-23T03:47:37.830Z,-0.30
2023-01-23T03:50:07.355Z,-0.30
2023-01-23T03:52:34.045Z,-0.30
2023-01-23T03:55:00.834Z,-0.30
2023-01-23T03:57:27.549Z,-0.30
2023-01-23T03:59:54.248Z,-0.30
2023-01-23T04:02:21.057Z,-0.30
2023-01-23T04:04:47.932Z,-0.30
2023-01-23T04:07:15.957Z,-0.30
2023-01-23T04:09:42.686Z,-0.30
2023-01-23T04:12:09.414Z,-0.40
2023-01-23T04:14:36.690Z,-0.40
2023-01-23T04:17:03.756Z,-0.40
2023-01-23T04:19:30.559Z,-0.40
2023-01-23T04:21:57.284Z,-0.40
2023-01-23T04:24:25.502Z,-0.40
2023-01-23T04:26:52.616Z,-0.30
2023-01-23T04:29:19.336Z,-0.40
2023-01-23T04:31:46.235Z,-0.40
2023-01-23T04:34:13.084Z,-0.40
2023-01-23T04:36:39.809Z,-0.30
2023-01-23T04:39:06.520Z,-0.30
2023-01-23T04:41:34.777Z,-0.30
2023-01-23T04:44:01.669Z,-0.30
2023-01-23T04:46:28.379Z,-0.30
2023-01-23T04:48:55.071Z,-0.30
2023-01-23T04:51:21.783Z,-0.30
2023-01-23T04:53:48.461Z,-0.30
2023-01-23T04:56:15.154Z,-0.30
2023-01-23T04:58:43.254Z,-0.30
2023-01-23T05:01:10.250Z,-0.30
2023-01-23T05:03:37.001Z,-0.30
2023-01-23T05:06:04.354Z,-0.30
2023-01-23T05:08:31.057Z,-0.30
2023-01-23T05:10:57.794Z,-0.30
2023-01-23T05:13:24.494Z,-0.30
2023-01-23T05:15:52.556Z,-0.30
2023-01-23T05:18:19.313Z,-0.30
2023-01-23T05:20:46.010Z,-0.30
2023-01-23T05:23:12.784Z,-0.30
2023-01-23T05:25:39.485Z,-0.30
2023-01-23T05:28:06.173Z,-0.30
2023-01-23T05:30:34.200Z,-0.30
2023-01-23T05:33:02.357Z,-0.30
2023-01-23T05:35:29.210Z,-0.40
2023-01-23T05:37:55.898Z,-0.30
2023-01-23T05:40:23.193Z,-0.30
2023-01-23T05:42:50.259Z,-0.30
2023-01-23T05:45:17.600Z,-0.30
2023-01-23T05:47:44.392Z,-0.30
2023-01-23T05:50:15.244Z,-0.30
2023-01-23T05:52:41.993Z,-0.30
2023-01-23T05:55:08.887Z,-0.30
2023-01-23T05:57:36.089Z,-0.30
2023-01-23T06:00:04.600Z,-0.30
2023-01-23T06:02:31.543Z,-0.30
2023-01-23T06:04:58.291Z,-0.30
2023-01-23T06:07:26.820Z,-0.40
2023-01-23T06:09:53.617Z,-0.30
2023-01-23T06:12:20.307Z,-0.40
2023-01-23T06:14:47.433Z,-0.30
2023-01-23T06:17:14.573Z,-0.30
2023-01-23T06:19:41.295Z,-0.30
2023-01-23T06:22:08.078Z,-0.30
2023-01-23T06:24:36.127Z,-0.30
2023-01-23T06:27:02.829Z,-0.30
2023-01-23T06:29:29.545Z,-0.30
2023-01-23T06:31:56.346Z,-0.30
2023-01-23T06:34:23.144Z,-0.30
2023-01-23T06:36:49.825Z,-0.30
2023-01-23T06:39:16.556Z,-0.30
2023-01-23T06:41:44.597Z,-0.30
2023-01-23T06:44:11.731Z,-0.30
2023-01-23T06:46:38.678Z,-0.30
2023-01-23T06:49:06.437Z,-0.30
2023-01-23T06:51:33.638Z,-0.30
2023-01-23T06:54:00.391Z,-0.30
2023-01-23T06:56:27.519Z,-0.30
2023-01-23T06:58:55.676Z,-0.30
2023-01-23T07:01:22.838Z,-0.30
2023-01-23T07:03:50.008Z,-0.20
2023-01-23T07:06:16.828Z,-0.20
2023-01-23T07:08:44.142Z,-0.30
2023-01-23T07:11:11.498Z,-0.20
2023-01-23T07:13:38.629Z,-0.30
2023-01-23T07:16:07.460Z,-0.30
2023-01-23T07:18:34.217Z,-0.30
2023-01-23T07:21:03.372Z,-0.20
2023-01-23T07:23:30.070Z,-0.30
2023-01-23T07:25:59.395Z,-0.30
2023-01-23T07:28:26.138Z,-0.30
2023-01-23T07:30:52.975Z,-0.30
2023-01-23T07:33:21.139Z,-0.30
2023-01-23T07:35:47.889Z,-0.30
2023-01-23T07:38:14.600Z,-0.30
2023-01-23T07:40:41.328Z,-0.30
2023-01-23T07:43:08.022Z,-0.30
2023-01-23T07:45:34.785Z,-0.30
2023-01-23T07:48:01.533Z,-0.30
2023-01-23T07:50:29.878Z,-0.30
2023-01-23T07:52:57.049Z,-0.30
2023-01-23T07:55:23.863Z,-0.30
2023-01-23T07:57:50.635Z,-0.30
2023-01-23T08:00:18.482Z,-0.20
2023-01-23T08:02:45.369Z,-0.20
2023-01-23T08:05:12.119Z,-0.20
2023-01-23T08:07:40.197Z,-0.20
2023-01-23T08:10:08.035Z,-0.20
2023-01-23T08:12:34.906Z,-0.20
2023-01-23T08:15:01.809Z,-0.20
2023-01-23T08:17:28.547Z,-0.20
2023-01-23T08:19:55.278Z,-0.20
2023-01-23T08:22:22.131Z,-0.20
2023-01-23T08:24:50.194Z,-0.20
2023-01-23T08:27:16.902Z,-0.20
2023-01-23T08:29:43.774Z,-0.20
2023-01-23T08:32:10.580Z,-0.20
2023-01-23T08:34:37.366Z,-0.20
2023-01-23T08:37:04.096Z,-0.10
2023-01-23T08:39:30.777Z,-0.20
2023-01-23T08:41:58.826Z,-0.10
2023-01-23T08:44:25.817Z,-0.10
2023-01-23T08:46:52.511Z,-0.10
2023-01-23T08:49:19.445Z,-0.10
2023-01-23T08:51:46.367Z,-0.10
2023-01-23T08:54:13.161Z,-0.10
2023-01-23T08:56:39.860Z,-0.10
2023-01-23T08:59:07.951Z,-0.10
2023-01-23T09:01:34.970Z,-0.10
2023-01-23T09:04:01.814Z,-0.10
2023-01-23T09:06:28.554Z,0.00
2023-01-23T09:08:55.276Z,0.00
2023-01-23T09:11:21.983Z,0.00
2023-01-23T09:13:48.699Z,0.00
2023-01-23T09:16:17.570Z,0.00
2023-01-23T09:18:44.393Z,0.00
2023-01-23T09:21:13.282Z,0.00
2023-01-23T09:23:39.989Z,0.00
2023-01-23T09:26:07.984Z,0.10
2023-01-23T09:28:35.637Z,0.10
2023-01-23T09:31:03.891Z,0.10
2023-01-23T09:33:32.003Z,0.10
2023-01-23T09:35:58.759Z,0.10
2023-01-23T09:38:25.675Z,0.10
2023-01-23T09:40:55.066Z,0.10
2023-01-23T09:43:25.156Z,0.10
2023-01-23T09:46:01.277Z,0.10
2023-01-23T09:48:38.769Z,0.20
2023-01-23T09:51:16.789Z,0.20
2023-01-23T09:53:43.556Z,0.20
2023-01-23T09:56:24.253Z,0.20
2023-01-23T09:59:00.824Z,0.20
2023-01-23T10:01:29.713Z,0.20
2023-01-23T10:03:59.509Z,0.20
2023-01-23T10:06:29.220Z,0.20
2023-01-23T10:09:11.845Z,0.20
2023-01-23T10:11:49.018Z,0.30
2023-01-23T10:14:52.022Z,0.30
2023-01-23T10:17:25.234Z,0.30
2023-01-23T10:20:14.034Z,0.30
2023-01-23T10:22:47.068Z,0.30
2023-01-23T10:25:18.953Z,0.30
2023-01-23T10:27:48.074Z,0.30
2023-01-23T10:30:23.831Z,0.30
2023-01-23T10:32:55.786Z,0.30
2023-01-23T10:35:29.659Z,0.30
2023-01-23T10:38:00.604Z,0.40
2023-01-23T10:40:27.964Z,0.30
2023-01-23T10:42:54.683Z,0.40
2023-01-23T10:45:22.708Z,0.30
2023-01-23T10:47:54.603Z,0.40
2023-01-23T10:50:36.072Z,0.40
2023-01-23T10:53:07.237Z,0.40
2023-01-23T10:55:33.970Z,0.40
2023-01-23T10:58:01.388Z,0.40
2023-01-23T11:00:35.309Z,0.40
2023-01-23T11:03:20.481Z,0.40
2023-01-23T11:05:53.489Z,0.40
2023-01-23T11:08:25.296Z,0.40
2023-01-23T11:10:52.017Z,0.40
2023-01-23T11:13:26.421Z,0.40
2023-01-23T11:15:53.449Z,0.40
2023-01-23T11:18:30.965Z,0.50
2023-01-23T11:20:59.597Z,0.50
2023-01-23T11:23:26.970Z,0.50
2023-01-23T11:25:54.793Z,0.50
2023-01-23T11:28:24.338Z,0.50
2023-01-23T11:31:03.789Z,0.50
2023-01-23T11:33:43.848Z,0.50
2023-01-23T11:36:38.411Z,0.50
2023-01-23T11:39:09.341Z,0.50
2023-01-23T11:41:36.215Z,0.50
2023-01-23T11:44:10.013Z,0.50
2023-01-23T11:46:53.469Z,0.50
2023-01-23T11:49:40.511Z,0.50
2023-01-23T11:52:24.594Z,0.50
2023-01-23T11:55:08.312Z,0.60
2023-01-23T11:57:48.674Z,0.60
2023-01-23T12:00:29.118Z,0.60
2023-01-23T12:03:33.307Z,0.60
2023-01-23T12:06:20.188Z,0.60
2023-01-23T12:08:54.889Z,0.60
2023-01-23T12:11:23.161Z,0.60
2023-01-23T12:14:03.054Z,0.70
2023-01-23T12:16:44.406Z,0.70
2023-01-23T12:19:26.033Z,0.70
2023-01-23T12:22:00.126Z,0.60
2023-01-23T12:24:42.928Z,0.70
2023-01-23T12:27:20.966Z,0.70
2023-01-23T12:30:18.950Z,0.70
2023-01-23T12:32:59.185Z,0.70
2023-01-23T12:35:47.577Z,0.70
2023-01-23T12:38:24.247Z,0.70
2023-01-23T12:40:59.400Z,0.70
2023-01-23T12:43:36.314Z,0.70
2023-01-23T12:46:08.141Z,0.70
2023-01-23T12:48:39.138Z,0.70
2023-01-23T12:51:12.420Z,0.70
2023-01-23T12:53:41.696Z,0.80
2023-01-23T12:56:13.540Z,0.70
2023-01-23T12:58:44.503Z,0.80
2023-01-23T13:01:25.392Z,0.80
2023-01-23T13:04:03.802Z,0.80
2023-01-23T13:06:42.872Z,0.80
2023-01-23T13:09:20.200Z,0.90
2023-01-23T13:11:55.136Z,0.90
2023-01-23T13:14:29.113Z,0.90
2023-01-23T13:16:59.599Z,0.80
2023-01-23T13:19:27.994Z,0.80
2023-01-23T13:22:19.039Z,0.80
2023-01-23T13:24:54.616Z,0.80
2023-01-23T13:27:42.689Z,0.80
2023-01-23T13:30:39.831Z,0.80
2023-01-23T13:33:52.799Z,0.80
2023-01-23T13:36:31.642Z,0.80
2023-01-23T13:39:29.040Z,0.90
2023-01-23T13:42:34.502Z,0.90
2023-01-23T13:45:34.840Z,0.80
2023-01-23T14:21:49.450Z,1.00
2023-01-23T14:24:21.532Z,1.00
2023-01-23T14:26:49.802Z,1.00
2023-01-23T14:29:21.099Z,1.00
2023-01-23T14:31:47.933Z,0.90
2023-01-23T14:34:18.949Z,0.90
2023-01-23T14:36:48.350Z,0.90
2023-01-23T14:39:18.543Z,0.90
2023-01-23T14:41:47.556Z,0.90
2023-01-23T14:44:21.099Z,0.90
2023-01-23T14:46:52.007Z,0.90
2023-01-23T14:49:25.979Z,0.90
2023-01-23T14:51:56.605Z,0.90
2023-01-23T14:54:23.777Z,0.90
2023-01-23T14:56:52.778Z,0.90
2023-01-23T14:59:25.514Z,0.90
2023-01-23T15:01:55.891Z,0.90
2023-01-23T15:04:26.225Z,0.90
2023-01-23T15:06:55.810Z,0.90
2023-01-23T15:09:29.233Z,0.90
2023-01-23T15:11:56.320Z,0.90
2023-01-23T15:14:25.984Z,0.90
2023-01-23T15:17:00.079Z,0.90
2023-01-23T15:19:28.752Z,0.90
2023-01-23T15:22:07.937Z,0.90
2023-01-23T15:24:34.686Z,0.90
2023-01-23T15:27:05.022Z,0.90
2023-01-23T15:29:33.122Z,0.90
2023-01-23T15:32:00.883Z,0.90
2023-01-23T15:34:32.620Z,0.90
2023-01-23T15:37:03.579Z,0.90
2023-01-23T15:39:32.266Z,0.90
2023-01-23T15:42:00.615Z,0.90
2023-01-23T15:44:29.029Z,0.90
2023-01-23T15:46:56.122Z,0.90
2023-01-23T15:49:26.344Z,0.90
2023-01-23T15:51:56.689Z,0.90
2023-01-23T15:54:28.162Z,0.90
2023-01-23T15:57:06.608Z,0.90
2023-01-23T15:59:35.394Z,0.90
2023-01-23T16:02:02.137Z,0.90
2023-01-23T16:04:28.844Z,0.90
2023-01-23T16:06:57.954Z,0.90
2023-01-23T16:09:30.623Z,0.90
2023-01-23T16:11:58.837Z,0.90
2023-01-23T16:14:25.888Z,1.00
2023-01-23T16:16:52.907Z,0.90
2023-01-23T16:19:19.697Z,0.90
2023-01-23T16:21:52.886Z,1.00
2023-01-23T16:24:27.583Z,0.90
2023-01-23T16:26:54.320Z,1.00
2023-01-23T16:29:26.134Z,0.90
2023-01-23T16:31:53.734Z,0.90
2023-01-23T16:34:20.800Z,0.90
2023-01-23T16:36:48.053Z,0.90
2023-01-23T16:39:18.553Z,1.00
2023-01-23T16:41:46.625Z,1.00
2023-01-23T16:44:16.587Z,0.90
2023-01-23T16:46:43.764Z,1.00
2023-01-23T16:49:10.529Z,1.00
2023-01-23T16:51:37.962Z,1.00
2023-01-23T16:54:17.701Z,1.00
2023-01-23T16:56:47.924Z,1.00
2023-01-23T16:59:17.090Z,1.00
2023-01-23T17:01:46.359Z,1.00
2023-01-23T17:04:15.558Z,1.00
2023-01-23T17:06:42.298Z,1.00
2023-01-23T17:09:10.543Z,1.00
2023-01-23T17:11:40.296Z,1.00
2023-01-23T17:14:14.349Z,1.00
2023-01-23T17:16:41.113Z,1.00
2023-01-23T17:19:19.265Z,1.00
2023-01-23T17:21:46.455Z,1.00
2023-01-23T17:24:16.297Z,1.00
2023-01-23T17:26:43.412Z,1.00
2023-01-23T17:29:11.798Z,1.00
2023-01-23T17:31:39.347Z,1.00
2023-01-23T17:34:07.224Z,1.00
2023-01-23T17:36:34.046Z,1.00
2023-01-23T17:39:00.808Z,1.00
2023-01-23T17:41:27.495Z,1.00
2023-01-23T17:43:54.183Z,1.00
2023-01-23T17:46:26.797Z,1.00
2023-01-23T17:48:54.608Z,1.00
2023-01-23T17:51:22.511Z,1.00
2023-01-23T17:53:50.035Z,1.00
2023-01-23T17:56:17.125Z,1.00
2023-01-23T17:58:44.172Z,1.00
2023-01-23T18:01:19.515Z,1.00
2023-01-23T18:03:48.557Z,1.00
2023-01-23T18:06:15.362Z,1.10
2023-01-23T18:08:42.160Z,1.10
2023-01-23T18:11:17.835Z,1.10
2023-01-23T18:13:53.159Z,1.10
2023-01-23T18:16:25.299Z,1.10
2023-01-23T18:18:58.498Z,1.10
2023-01-23T18:21:25.931Z,1.00
2023-01-23T18:23:53.931Z,1.00
2023-01-23T18:26:36.333Z,1.10
2023-01-23T18:29:19.385Z,1.10
2023-01-23T18:31:58.686Z,1.10
2023-01-23T18:34:35.494Z,1.10
2023-01-23T18:37:12.765Z,1.10
2023-01-23T18:39:53.185Z,1.10
2023-01-23T18:42:24.050Z,1.10
2023-01-23T18:44:57.440Z,1.10
2023-01-23T18:47:24.864Z,1.10
2023-01-23T18:49:53.593Z,1.10
2023-01-23T18:52:25.080Z,1.10
2023-01-23T18:54:58.713Z,1.10
2023-01-23T18:57:48.869Z,1.10
2023-01-23T19:00:18.591Z,1.10
2023-01-23T19:02:48.160Z,1.10
2023-01-23T19:05:27.748Z,1.10
2023-01-23T19:07:55.092Z,1.10
2023-01-23T19:10:23.619Z,1.10
2023-01-23T19:13:02.588Z,1.10
2023-01-23T19:15:35.063Z,1.10
2023-01-23T19:18:12.194Z,1.10
2023-01-23T19:20:47.045Z,1.10
2023-01-23T19:23:31.800Z,1.10
2023-01-23T19:25:59.015Z,1.10
2023-01-23T19:28:26.150Z,1.10
2023-01-23T19:30:53.473Z,1.10
2023-01-23T19:33:21.713Z,1.10
2023-01-23T19:35:49.911Z,1.10
2023-01-23T19:38:16.769Z,1.10
2023-01-23T19:40:44.939Z,1.10
2023-01-23T19:43:15.983Z,1.10
2023-01-23T19:45:43.205Z,1.10
2023-01-23T19:48:10.483Z,1.10
2023-01-23T19:50:37.672Z,1.10
2023-01-23T19:53:06.011Z,1.10
2023-01-23T19:55:34.536Z,1.10
2023-01-23T19:58:01.269Z,1.10
2023-01-23T20:00:30.419Z,1.10
2023-01-23T20:02:57.399Z,1.10
2023-01-23T20:05:25.065Z,1.10
2023-01-23T20:07:52.099Z,1.10
2023-01-23T20:10:20.759Z,1.10
2023-01-23T20:12:49.442Z,1.20
2023-01-23T20:15:16.389Z,1.10
2023-01-23T20:17:43.142Z,1.10
2023-01-23T20:20:11.486Z,1.10
2023-01-23T20:22:39.124Z,1.10
2023-01-23T20:25:06.749Z,1.10
2023-01-23T20:27:35.266Z,1.10
2023-01-23T20:30:03.042Z,1.10
2023-01-23T20:32:31.528Z,1.10
2023-01-23T20:34:58.996Z,1.20
2023-01-23T20:37:25.839Z,1.10
2023-01-23T20:39:52.678Z,1.10
2023-01-23T20:42:19.507Z,1.10
2023-01-23T20:44:47.713Z,1.20
2023-01-23T20:47:14.647Z,1.20
2023-01-23T20:49:41.349Z,1.20
2023-01-23T20:52:08.051Z,1.20
2023-01-23T20:54:34.752Z,1.10
2023-01-23T20:57:01.636Z,1.10
2023-01-23T20:59:28.383Z,1.20
2023-01-23T21:01:56.444Z,1.20
2023-01-23T21:04:24.927Z,1.20
2023-01-23T21:06:51.748Z,1.20
2023-01-23T21:09:18.622Z,1.20
2023-01-23T21:11:45.691Z,1.20
2023-01-23T21:14:13.366Z,1.20
2023-01-23T21:16:40.092Z,1.20
2023-01-23T21:19:08.232Z,1.20
2023-01-23T21:21:35.099Z,1.20
2023-01-23T21:24:01.946Z,1.20
2023-01-23T21:26:30.155Z,1.20
2023-01-23T21:28:57.910Z,1.20
2023-01-23T21:31:27.468Z,1.20
2023-01-23T21:33:55.417Z,1.10
2023-01-23T21:36:24.753Z,1.20
2023-01-23T21:38:52.538Z,1.20
2023-01-23T21:41:19.709Z,1.10
2023-01-23T21:43:46.534Z,1.10
2023-01-23T21:46:13.834Z,1.20
2023-01-23T21:48:40.872Z,1.10
2023-01-23T21:51:09.808Z,1.20
2023-01-23T21:53:39.356Z,1.20
2023-01-23T21:56:07.357Z,1.20
2023-01-23T21:58:34.256Z,1.20
2023-01-23T22:01:03.792Z,1.20
2023-01-23T22:03:33.943Z,1.20
2023-01-23T22:06:00.657Z,1.20
2023-01-23T22:08:27.370Z,1.20
2023-01-23T22:10:55.451Z,1.20
2023-01-23T22:13:22.160Z,1.20
2023-01-23T22:15:48.942Z,1.20
2023-01-23T22:18:15.841Z,1.20
2023-01-23T22:20:42.536Z,1.20
2023-01-23T22:23:09.338Z,1.20
2023-01-23T22:25:36.049Z,1.20
2023-01-23T22:28:04.470Z,1.20
2023-01-23T22:30:31.206Z,1.20
2023-01-23T22:32:57.920Z,1.20
2023-01-23T22:35:24.622Z,1.20
2023-01-23T22:37:51.320Z,1.20
2023-01-23T22:40:18.269Z,1.20
2023-01-23T22:42:44.972Z,1.30
2023-01-23T22:45:13.369Z,1.30
2023-01-23T22:47:40.051Z,1.30
2023-01-23T22:50:07.371Z,1.20
2023-01-23T22:52:34.092Z,1.20
2023-01-23T22:55:00.809Z,1.20
2023-01-23T22:57:27.511Z,1.20
2023-01-23T22:59:54.197Z,1.20
2023-01-23T23:02:22.395Z,1.20
2023-01-23T23:04:49.189Z,1.20
2023-01-23T23:07:16.143Z,1.30
2023-01-23T23:09:43.264Z,1.30
2023-01-23T23:12:10.781Z,1.30
2023-01-23T23:14:37.771Z,1.30
2023-01-23T23:17:04.499Z,1.30
2023-01-23T23:19:32.725Z,1.30
2023-01-23T23:21:59.467Z,1.30
2023-01-23T23:24:26.220Z,1.30
2023-01-23T23:26:52.944Z,1.30
2023-01-23T23:29:19.656Z,1.30
2023-01-23T23:31:46.483Z,1.30
2023-01-23T23:34:13.281Z,1.30
2023-01-23T23:36:41.356Z,1.30
2023-01-23T23:39:08.288Z,1.30
2023-01-23T23:41:35.085Z,1.30
2023-01-23T23:44:01.788Z,1.30
2023-01-23T23:46:28.790Z,1.30
2023-01-23T23:48:55.583Z,1.30
2023-01-23T23:51:22.373Z,1.30
2023-01-23T23:53:50.445Z,1.30
2023-01-23T23:56:20.555Z,1.30
2023-01-23T23:58:47.416Z,1.30
